Thursday, November 15, 2018, 8:27 PM EST
Back to Local

KRUT, Rutland, Rutland-southern Vermont Regional Airport

Location: North Clarendon, VT, United States Lat: 43.533
Local Time: 8:27 PM EST ( 1:27 GMT) Lon: -72.95
Time Zone: US/Eastern Elev: 787 ft

Show me the last for .
Show Coded

Time T Td Feel RH Dir Speed Gust Alt SLP Vis Weather Sky Remarks
2018-11-15 19:56 26 10 18 50 140° 8 - 30.30 30.36 10 SCT031 OVC110 None
2018-11-15 18:56 26 9 19 47 190° 6 - 30.32 30.39 10 CLR 6-hr Min Temp (7pm): 25.0°F
6-hr Max Temp (7pm): 28.0°F
2018-11-15 17:56 25 8 16 47 160° 9 - 30.33 30.40 10 CLR None
2018-11-15 15:56 25 11 14 54 100° 12 - 30.35 30.41 10 CLR Pressure falling rapidly
2018-11-15 14:56 27 12 17 52 120° 10 - 30.38 30.45 10 CLR None
2018-11-15 12:56 27 15 - 60 - Calm - 30.42 30.49 10 CLR 6-hr Min Temp (1pm): 12.9°F
6-hr Max Temp (1pm): 27.0°F
2018-11-15 11:56 27 14 23 57 340° 3 - 30.47 30.53 10 CLR None
2018-11-15 10:56 24 12 - 59 - Calm - 30.53 30.60 10 CLR None
2018-11-15 09:56 21 12 - 67 - Calm - 30.53 30.60 10 CLR None
2018-11-15 08:56 17 11 12 76 190° 3 - 30.58 30.65 10 CLR None
2018-11-15 07:56 14 10 8 83 110° 3 - 30.58 30.64 10 CLR None
2018-11-15 06:56 13 9 5 83 100° 5 - 30.57 30.64 10 CLR 6-hr Min Temp (7am): 12.0°F
6-hr Max Temp (7am): 12.9°F
2018-11-15 05:56 12 8 4 83 120° 5 - 30.58 30.65 10 CLR None
2018-11-15 04:56 13 9 7 83 60° 3 - 30.58 30.65 10 CLR Pressure falling rapidly
2018-11-15 03:56 12 8 0 83 120° 8 - 30.58 30.65 10 CLR None
2018-11-15 02:56 12 8 3 83 130° 6 - 30.59 30.65 10 CLR None
2018-11-15 01:56 13 9 2 83 120° 8 - 30.58 30.65 10 CLR None
2018-11-15 00:56 12 9 - 87 - Calm - 30.56 30.63 10 CLR 6-hr Min Temp (1am): 12.0°F
6-hr Max Temp (1am): 17.1°F
2018-11-14 23:56 13 7 7 76 130° 3 - 30.57 30.64 10 CLR 24-hr Min Temp (12am): 12.9°F
24-hr Max Temp (12am): 28.0°F
2018-11-14 22:56 13 8 7 80 140° 3 - 30.55 30.61 10 CLR None
2018-11-14 21:56 14 10 6 83 100° 5 - 30.53 30.59 10 CLR Pressure falling rapidly
2018-11-14 20:56 14 5 - 66 - Calm - 30.54 30.61 10 CLR None

Support USWX by starting your Amazon purchase here.